Time;durP1;ratioP1;P1;durP2;ratioP2;P2;SDS_P1;SDS_P2;PMS_P1;PMS_P2;Temp;Humidity;BMP_temperature;BMP_pressure;BME280_temperature;BME280_humidity;BME280_pressure;Samples;Min_cycle;Max_cycle;Signal;HPM_P1;HPM_P2
2021/12/05 00:22:40;;;;;;;21.33;15.73;;;2.90;99.90;;;;;;5094313;28;20780;-70
2021/12/05 00:25:10;;;;;;;23.60;16.33;;;2.90;99.90;;;;;;5117345;28;20563;-70
2021/12/05 00:27:43;;;;;;;22.53;16.73;;;2.90;99.90;;;;;;5117208;28;20539;-69
2021/12/05 00:30:36;;;;;;;19.80;13.90;;;2.90;99.90;;;;;;5117096;28;20444;-69
2021/12/05 00:33:19;;;;;;;23.40;14.83;;;2.90;99.90;;;;;;5117304;28;20441;-69
2021/12/05 00:36:42;;;;;;;21.63;14.90;;;2.90;99.90;;;;;;5117064;28;20522;-69
2021/12/05 00:39:22;;;;;;;21.73;15.10;;;2.90;99.90;;;;;;5116720;28;20615;-68
2021/12/05 00:42:38;;;;;;;22.73;15.20;;;2.80;99.90;;;;;;5117389;28;20449;-69
2021/12/05 00:45:31;;;;;;;20.47;13.90;;;2.80;99.90;;;;;;5116747;28;20452;-69
2021/12/05 00:48:21;;;;;;;16.80;12.40;;;2.80;99.90;;;;;;5116877;28;20467;-69
2021/12/05 00:56:52;;;;;;;21.13;14.00;;;2.80;99.90;;;;;;5116567;28;20547;-68
2021/12/05 00:59:35;;;;;;;21.43;14.00;;;2.70;99.90;;;;;;5116756;28;20429;-69
2021/12/05 01:07:42;;;;;;;18.43;14.00;;;2.70;99.90;;;;;;5093153;28;20458;-69
2021/12/05 01:10:16;;;;;;;19.00;14.33;;;2.70;99.90;;;;;;5116649;28;20459;-70
2021/12/05 01:13:02;;;;;;;21.80;15.00;;;2.70;99.90;;;;;;5116763;28;20494;-69
2021/12/05 01:15:29;;;;;;;21.10;14.67;;;2.70;99.90;;;;;;5116413;27;20455;-70
2021/12/05 01:18:02;;;;;;;20.43;14.63;;;2.70;99.90;;;;;;5116484;28;20603;-69
2021/12/05 01:20:31;;;;;;;20.53;15.17;;;2.70;99.90;;;;;;5116397;28;20441;-70
2021/12/05 01:23:03;;;;;;;21.53;15.60;;;2.70;99.90;;;;;;5116752;28;20940;-70
2021/12/05 01:25:40;;;;;;;21.37;15.33;;;2.70;99.90;;;;;;5116542;28;20464;-73
2021/12/05 01:28:16;;;;;;;19.70;14.53;;;2.70;99.90;;;;;;5116544;27;20739;-72
2021/12/05 01:30:50;;;;;;;18.47;14.00;;;2.70;99.90;;;;;;5116632;28;20475;-73
2021/12/05 01:33:23;;;;;;;21.40;15.83;;;2.60;99.90;;;;;;5116564;28;20484;-70
2021/12/05 01:36:05;;;;;;;22.70;16.13;;;2.60;99.90;;;;;;5116014;28;20544;-69
2021/12/05 01:38:52;;;;;;;20.10;14.73;;;2.60;99.90;;;;;;5117845;28;20444;-73
2021/12/05 01:44:47;;;;;;;25.77;16.23;;;2.70;99.90;;;;;;5138608;27;20837;-72
2021/12/05 01:53:11;;;;;;;21.70;15.50;;;2.70;99.90;;;;;;5138509;27;20450;-71
2021/12/05 01:56:05;;;;;;;20.20;15.00;;;2.80;99.90;;;;;;5138938;28;20558;-72
2021/12/05 01:58:50;;;;;;;24.10;16.60;;;2.80;99.90;;;;;;5138303;27;20452;-71
2021/12/05 02:09:48;;;;;;;25.00;17.70;;;2.80;99.90;;;;;;5136256;28;20450;-72
2021/12/05 02:12:39;;;;;;;29.20;17.63;;;2.80;99.90;;;;;;5135039;28;20482;-72
2021/12/05 02:31:59;;;;;;;28.70;18.70;;;2.90;99.90;;;;;;5134759;28;20435;-72
2021/12/05 02:34:40;;;;;;;29.27;20.33;;;2.90;99.90;;;;;;5134484;28;20444;-72
2021/12/05 02:37:31;;;;;;;27.00;20.50;;;2.90;99.90;;;;;;5134208;28;20436;-72
2021/12/05 02:42:49;;;;;;;29.70;19.10;;;2.90;99.90;;;;;;5127985;27;20478;-72
2021/12/05 02:45:16;;;;;;;29.53;19.43;;;2.90;99.90;;;;;;5133538;28;20436;-72
2021/12/05 02:47:49;;;;;;;28.73;20.87;;;2.90;99.90;;;;;;5133648;27;20640;-72
2021/12/05 02:50:17;;;;;;;29.97;20.67;;;2.80;99.90;;;;;;5133139;28;20432;-72
2021/12/05 02:52:46;;;;;;;29.33;19.43;;;2.90;99.90;;;;;;5132657;28;20915;-72
2021/12/05 02:55:17;;;;;;;29.00;20.03;;;2.80;99.90;;;;;;5122025;27;20839;-72
2021/12/05 02:57:53;;;;;;;28.07;19.80;;;2.90;99.90;;;;;;5118763;28;20495;-71
2021/12/05 03:00:35;;;;;;;32.77;21.20;;;2.90;99.90;;;;;;5118958;28;20483;-72
2021/12/05 03:03:02;;;;;;;33.30;21.97;;;2.90;99.90;;;;;;5119140;28;20553;-71
2021/12/05 03:05:31;;;;;;;34.83;22.50;;;2.90;99.90;;;;;;5119550;28;20452;-72
2021/12/05 03:08:01;;;;;;;28.37;19.53;;;2.90;99.90;;;;;;5119093;28;20559;-71
2021/12/05 03:10:29;;;;;;;34.10;20.87;;;2.90;99.90;;;;;;5117985;28;20460;-71
2021/12/05 03:12:56;;;;;;;32.87;21.37;;;2.80;99.90;;;;;;5117990;28;20488;-71
2021/12/05 03:15:23;;;;;;;31.23;19.60;;;2.90;99.90;;;;;;5117815;28;20464;-71
2021/12/05 03:17:50;;;;;;;30.10;21.43;;;2.90;99.90;;;;;;5117639;28;20460;-71
2021/12/05 03:20:20;;;;;;;30.10;21.27;;;2.90;99.90;;;;;;5117278;28;20919;-71
2021/12/05 03:22:47;;;;;;;33.47;23.10;;;2.90;99.90;;;;;;5118181;28;20472;-71
2021/12/05 03:25:15;;;;;;;31.07;20.57;;;2.90;99.90;;;;;;5119014;27;20471;-71
2021/12/05 03:27:44;;;;;;;31.80;21.03;;;2.90;99.90;;;;;;5117222;28;20743;-72
2021/12/05 03:30:13;;;;;;;30.20;20.57;;;2.90;99.90;;;;;;5117356;28;20468;-72
2021/12/05 03:32:41;;;;;;;32.30;21.27;;;2.80;99.90;;;;;;5117217;28;20547;-73
2021/12/05 03:35:09;;;;;;;32.67;21.47;;;2.80;99.90;;;;;;5117291;28;20913;-72
2021/12/05 03:37:36;;;;;;;33.00;21.60;;;2.90;99.90;;;;;;5116840;28;20452;-72
2021/12/05 03:40:06;;;;;;;35.57;23.33;;;2.90;99.90;;;;;;5117089;28;20456;-71
2021/12/05 03:42:35;;;;;;;28.70;19.87;;;2.90;99.90;;;;;;5116662;27;20488;-71
2021/12/05 03:45:06;;;;;;;34.60;21.40;;;2.90;99.90;;;;;;5116692;28;20887;-71
2021/12/05 03:47:33;;;;;;;33.67;23.10;;;2.80;99.90;;;;;;5117371;27;20758;-72
2021/12/05 03:49:59;;;;;;;32.77;22.00;;;2.80;99.90;;;;;;5117518;28;20449;-71
2021/12/05 03:52:28;;;;;;;33.40;22.07;;;2.90;99.90;;;;;;5116831;28;20460;-72
2021/12/05 03:54:55;;;;;;;30.13;20.57;;;2.80;99.90;;;;;;5116615;28;20521;-72
2021/12/05 03:57:21;;;;;;;35.23;22.60;;;2.90;99.90;;;;;;5116300;28;20467;-72
2021/12/05 03:59:49;;;;;;;34.17;24.30;;;2.80;99.90;;;;;;5116799;28;20456;-72
2021/12/05 04:02:16;;;;;;;30.90;22.20;;;2.80;99.90;;;;;;5116606;28;20456;-71
2021/12/05 04:04:45;;;;;;;30.80;21.40;;;2.80;99.90;;;;;;5116374;28;20480;-71
2021/12/05 04:07:15;;;;;;;33.20;22.37;;;2.80;99.90;;;;;;5115320;28;20767;-71
2021/12/05 04:09:42;;;;;;;31.60;19.63;;;2.70;99.90;;;;;;5116155;28;20916;-73
2021/12/05 04:12:09;;;;;;;35.80;23.70;;;2.60;99.90;;;;;;5116386;28;20457;-71
2021/12/05 04:14:40;;;;;;;36.47;22.47;;;2.70;99.90;;;;;;5116357;28;20452;-71
2021/12/05 04:17:10;;;;;;;38.03;23.70;;;2.60;99.90;;;;;;5116312;28;20452;-71
2021/12/05 04:19:38;;;;;;;38.57;23.43;;;2.60;99.90;;;;;;5116262;28;20445;-71
2021/12/05 04:22:07;;;;;;;35.13;23.03;;;2.60;99.90;;;;;;5115928;28;20924;-71
2021/12/05 04:24:35;;;;;;;38.03;23.67;;;2.60;99.90;;;;;;5115859;28;20502;-72
2021/12/05 04:27:03;;;;;;;33.33;22.60;;;2.70;99.90;;;;;;5116147;28;20452;-71
2021/12/05 04:29:31;;;;;;;36.90;23.90;;;2.70;99.90;;;;;;5115858;28;20445;-71
2021/12/05 04:31:58;;;;;;;34.63;23.10;;;2.80;99.90;;;;;;5115883;28;20456;-71
2021/12/05 04:34:26;;;;;;;36.43;24.20;;;2.90;99.90;;;;;;5115646;28;20784;-71
2021/12/05 04:36:56;;;;;;;35.80;23.43;;;2.90;99.90;;;;;;5115871;28;20760;-71
2021/12/05 04:39:23;;;;;;;32.17;21.50;;;2.90;99.90;;;;;;5115498;28;20460;-71
2021/12/05 04:41:51;;;;;;;35.27;22.50;;;2.90;99.90;;;;;;5116266;28;20456;-73
2021/12/05 04:44:19;;;;;;;37.20;22.90;;;2.90;99.90;;;;;;5116202;28;20495;-71
2021/12/05 04:46:47;;;;;;;36.37;22.53;;;2.90;99.90;;;;;;5115512;28;20468;-71
2021/12/05 04:49:15;;;;;;;34.27;23.00;;;2.90;99.90;;;;;;5115535;28;20468;-72
2021/12/05 04:51:46;;;;;;;34.50;22.20;;;3.00;99.90;;;;;;5115732;28;20457;-72
2021/12/05 04:54:16;;;;;;;36.20;22.67;;;3.00;99.90;;;;;;5115680;28;20437;-71
2021/12/05 04:56:44;;;;;;;35.77;22.93;;;3.00;99.90;;;;;;5115196;28;20889;-71
2021/12/05 04:59:14;;;;;;;36.33;21.87;;;3.00;99.90;;;;;;5115173;28;20538;-72
2021/12/05 05:01:41;;;;;;;38.03;23.63;;;3.00;99.90;;;;;;5115762;28;20464;-71
2021/12/05 05:04:18;;;;;;;33.20;22.53;;;3.00;99.90;;;;;;5115328;28;20876;-71
2021/12/05 05:06:47;;;;;;;30.23;20.97;;;3.00;99.90;;;;;;5115412;28;20871;-71
2021/12/05 05:09:13;;;;;;;33.10;22.20;;;3.00;99.90;;;;;;5115906;28;20463;-71
2021/12/05 05:11:41;;;;;;;33.00;22.23;;;3.00;99.90;;;;;;5115909;28;20477;-71
2021/12/05 05:14:09;;;;;;;34.03;21.47;;;3.00;99.90;;;;;;5115964;28;20448;-71
2021/12/05 05:16:36;;;;;;;32.30;21.57;;;3.00;99.90;;;;;;5115994;27;20487;-71
2021/12/05 05:19:03;;;;;;;35.17;22.90;;;3.00;99.90;;;;;;5115426;28;20499;-71
2021/12/05 05:21:37;;;;;;;33.93;23.40;;;3.00;99.90;;;;;;5114926;28;20467;-71
2021/12/05 05:27:35;;;;;;;36.40;20.43;;;3.00;99.90;;;;;;5109308;28;20501;-71
2021/12/05 05:30:20;;;;;;;34.10;22.33;;;3.00;99.90;;;;;;5114980;28;20459;-72
2021/12/05 05:44:06;;;;;;;33.57;21.10;;;3.00;99.90;;;;;;5114458;28;20487;-71
2021/12/05 05:46:50;;;;;;;32.83;22.27;;;3.00;99.90;;;;;;5114924;28;20834;-72
2021/12/05 05:49:19;;;;;;;35.80;22.60;;;3.00;99.90;;;;;;5115119;28;20453;-71
2021/12/05 05:51:46;;;;;;;36.93;22.47;;;3.00;99.90;;;;;;5115097;28;20460;-71
2021/12/05 05:54:13;;;;;;;37.40;22.67;;;3.00;99.90;;;;;;5114939;28;20452;-71
2021/12/05 05:56:44;;;;;;;34.37;22.57;;;3.00;99.90;;;;;;5114805;28;20464;-71
2021/12/05 05:59:17;;;;;;;37.07;23.60;;;3.00;99.90;;;;;;5114926;28;20535;-71
2021/12/05 06:03:18;;;;;;;36.40;23.57;;;3.10;99.90;;;;;;5114640;28;20451;-71
2021/12/05 06:04:41;;;;;;;35.37;23.40;;;3.00;99.90;;;;;;5114290;28;20476;-70
2021/12/05 06:07:09;;;;;;;33.90;22.73;;;2.90;99.90;;;;;;5114737;28;20456;-72
2021/12/05 06:09:36;;;;;;;35.27;22.43;;;2.90;99.90;;;;;;5114511;28;20464;-70
2021/12/05 06:12:05;;;;;;;38.37;23.10;;;2.90;99.90;;;;;;5114680;28;20452;-71
2021/12/05 06:14:32;;;;;;;34.80;22.63;;;2.90;99.90;;;;;;5114566;28;20460;-72
2021/12/05 06:16:58;;;;;;;39.50;24.10;;;2.90;99.90;;;;;;5114549;28;20503;-72
2021/12/05 06:19:25;;;;;;;33.87;23.17;;;2.80;99.90;;;;;;5114392;28;20463;-71
2021/12/05 06:21:52;;;;;;;39.43;23.40;;;2.80;99.90;;;;;;5114114;28;20456;-71
2021/12/05 06:24:22;;;;;;;39.30;24.53;;;2.80;99.90;;;;;;5114246;28;20778;-71
2021/12/05 06:26:49;;;;;;;33.37;21.67;;;2.80;99.90;;;;;;5113987;28;20465;-71
2021/12/05 06:29:20;;;;;;;34.83;22.53;;;2.70;99.90;;;;;;5115094;28;20462;-72
2021/12/05 06:31:57;;;;;;;39.47;25.40;;;2.70;99.90;;;;;;5118076;28;20998;-72
2021/12/05 06:37:30;;;;;;;34.60;21.60;;;2.80;99.90;;;;;;5117982;28;20581;-71
2021/12/05 06:42:56;;;;;;;37.90;21.57;;;2.70;99.90;;;;;;5101587;28;20549;-71
2021/12/05 06:48:09;;;;;;;41.57;22.53;;;2.70;99.90;;;;;;5118004;28;20428;-71
2021/12/05 06:50:35;;;;;;;34.77;23.50;;;2.70;99.90;;;;;;5117890;28;20824;-71
2021/12/05 06:53:06;;;;;;;39.40;24.37;;;2.70;99.90;;;;;;5117933;28;20479;-71
2021/12/05 06:55:32;;;;;;;35.53;23.17;;;2.70;99.90;;;;;;5118045;28;20448;-71
2021/12/05 06:57:59;;;;;;;33.77;22.20;;;2.70;99.90;;;;;;5117674;28;20939;-71
2021/12/05 07:00:29;;;;;;;37.07;23.13;;;2.70;99.90;;;;;;5117741;28;20453;-71
2021/12/05 07:02:56;;;;;;;38.13;22.33;;;2.70;99.90;;;;;;5117542;28;20436;-71
2021/12/05 07:08:05;;;;;;;37.03;22.77;;;2.70;99.90;;;;;;5117480;28;20467;-71
2021/12/05 07:10:38;;;;;;;37.00;23.97;;;2.70;99.90;;;;;;5117616;28;20448;-71
2021/12/05 07:13:37;;;;;;;37.40;23.47;;;2.70;99.90;;;;;;5117690;28;20436;-71
2021/12/05 07:16:12;;;;;;;33.10;21.70;;;2.80;99.90;;;;;;5117199;28;20921;-71
2021/12/05 07:18:50;;;;;;;35.27;22.47;;;2.80;99.90;;;;;;5117474;28;20440;-71
2021/12/05 07:21:28;;;;;;;39.87;24.97;;;2.80;99.90;;;;;;5117213;28;20945;-71
2021/12/05 07:24:04;;;;;;;34.43;22.43;;;2.80;99.90;;;;;;5117360;28;20464;-71
2021/12/05 07:26:47;;;;;;;39.53;23.37;;;2.80;99.90;;;;;;5117514;28;20519;-71
2021/12/05 07:40:27;;;;;;;33.87;22.57;;;2.80;99.90;;;;;;5117265;28;20478;-71
2021/12/05 07:42:55;;;;;;;32.17;22.10;;;2.80;99.90;;;;;;5116992;28;20493;-71
2021/12/05 07:45:29;;;;;;;38.73;22.47;;;2.80;99.90;;;;;;5117117;28;20944;-71
2021/12/05 07:48:01;;;;;;;33.27;21.80;;;2.80;99.90;;;;;;5117006;28;20493;-71
2021/12/05 07:50:39;;;;;;;34.57;23.03;;;2.80;99.90;;;;;;5117131;28;20460;-71
2021/12/05 07:53:11;;;;;;;35.80;22.50;;;2.80;99.90;;;;;;5117210;28;20437;-71
2021/12/05 07:55:42;;;;;;;39.47;22.00;;;2.80;99.90;;;;;;5116714;28;20445;-71
2021/12/05 07:58:11;;;;;;;32.73;22.00;;;2.80;99.90;;;;;;5116623;28;20928;-71
2021/12/05 08:00:50;;;;;;;33.83;23.47;;;2.80;99.90;;;;;;5116736;28;20456;-71
2021/12/05 08:16:57;;;;;;;44.40;25.70;;;2.80;99.90;;;;;;5112718;28;20798;-72
2021/12/05 08:19:25;;;;;;;45.50;27.77;;;2.80;99.90;;;;;;5116032;28;20581;-70
2021/12/05 08:21:55;;;;;;;37.83;24.17;;;2.90;99.90;;;;;;5116134;28;20467;-70
2021/12/05 08:24:22;;;;;;;39.90;23.20;;;2.90;99.90;;;;;;5115775;28;20820;-71
2021/12/05 08:26:50;;;;;;;40.93;23.77;;;2.90;99.90;;;;;;5116248;28;20467;-71
2021/12/05 08:29:22;;;;;;;45.93;24.50;;;3.00;99.90;;;;;;5117149;28;20457;-71
2021/12/05 08:32:15;;;;;;;39.63;25.00;;;3.00;99.90;;;;;;5116338;28;20869;-71
2021/12/05 08:34:54;;;;;;;38.47;24.27;;;3.00;99.90;;;;;;5115760;28;20555;-71
2021/12/05 08:40:33;;;;;;;38.57;23.60;;;3.10;99.90;;;;;;5115905;28;20516;-70
2021/12/05 08:43:32;;;;;;;40.17;24.60;;;3.20;99.90;;;;;;5115475;28;20480;-71
2021/12/05 09:08:16;;;;;;;40.23;24.77;;;3.20;99.90;;;;;;5115059;27;20488;-71
2021/12/05 09:25:46;;;;;;;41.87;26.23;;;3.30;99.90;;;;;;5114948;28;20471;-71
2021/12/05 09:28:41;;;;;;;44.17;28.10;;;3.20;99.90;;;;;;5115166;28;20512;-71
2021/12/05 09:38:28;;;;;;;47.83;26.70;;;3.20;99.90;;;;;;5114874;28;20452;-70
2021/12/05 09:40:09;;;;;;;47.63;27.93;;;3.30;99.90;;;;;;5114947;28;20553;-69
2021/12/05 09:51:19;;;;;;;46.87;25.70;;;3.40;99.90;;;;;;5114285;28;20450;-70
2021/12/05 10:10:32;;;;;;;48.27;27.07;;;3.60;99.90;;;;;;5119317;28;20475;-72
2021/12/05 10:13:10;;;;;;;44.13;26.70;;;3.60;99.90;;;;;;5118871;28;20441;-71
2021/12/05 10:15:54;;;;;;;52.50;30.70;;;3.70;99.90;;;;;;5119118;28;20543;-72
2021/12/05 10:35:32;;;;;;;51.33;29.90;;;3.70;99.90;;;;;;5118540;28;20435;-70
2021/12/05 10:38:03;;;;;;;53.80;28.43;;;3.60;99.90;;;;;;5118534;28;20562;-70
2021/12/05 10:40:38;;;;;;;45.97;27.97;;;3.70;99.90;;;;;;5118361;28;20486;-70
2021/12/05 10:43:14;;;;;;;51.03;29.53;;;3.70;99.90;;;;;;5118239;28;20764;-71
2021/12/05 10:45:45;;;;;;;50.43;28.70;;;3.70;99.90;;;;;;5117937;28;20472;-70
2021/12/05 10:48:22;;;;;;;51.33;30.07;;;3.70;99.90;;;;;;5117745;28;20793;-71
2021/12/05 10:50:50;;;;;;;49.00;27.97;;;3.70;99.90;;;;;;5118006;28;20822;-71
2021/12/05 10:53:28;;;;;;;49.13;27.83;;;3.70;99.90;;;;;;5117977;28;20463;-71
2021/12/05 10:55:58;;;;;;;48.70;27.40;;;3.70;99.90;;;;;;5117671;28;20768;-72
2021/12/05 10:58:29;;;;;;;44.70;26.97;;;3.70;99.90;;;;;;5118027;28;20916;-70
2021/12/05 11:01:06;;;;;;;49.50;28.20;;;3.80;99.90;;;;;;5117972;28;20539;-70
2021/12/05 11:03:35;;;;;;;51.80;28.00;;;3.90;99.90;;;;;;5117590;28;20739;-70
2021/12/05 11:06:01;;;;;;;50.43;29.90;;;3.90;99.90;;;;;;5117718;28;20510;-69
2021/12/05 11:08:32;;;;;;;55.43;30.27;;;4.00;99.90;;;;;;5117646;28;20444;-71
2021/12/05 11:11:07;;;;;;;47.50;26.57;;;4.00;99.90;;;;;;5117596;28;20465;-70
2021/12/05 11:13:37;;;;;;;50.20;28.90;;;4.00;99.90;;;;;;5117789;28;20780;-71
2021/12/05 11:16:05;;;;;;;48.60;27.80;;;4.00;99.90;;;;;;5116992;28;20533;-71
2021/12/05 11:19:10;;;;;;;58.13;29.77;;;4.00;99.90;;;;;;5118306;28;20792;-70
2021/12/05 11:21:46;;;;;;;53.60;29.97;;;4.00;99.90;;;;;;5117892;28;20448;-72
2021/12/05 11:24:18;;;;;;;48.23;27.53;;;4.00;99.90;;;;;;5117282;28;20444;-71
2021/12/05 11:26:47;;;;;;;51.67;29.33;;;3.90;99.90;;;;;;5117415;28;20440;-71
2021/12/05 11:29:14;;;;;;;53.53;28.57;;;3.90;99.90;;;;;;5117436;28;20544;-71
2021/12/05 11:31:41;;;;;;;50.40;28.80;;;3.80;99.90;;;;;;5117795;28;20452;-71
2021/12/05 11:34:09;;;;;;;49.90;29.70;;;3.80;99.90;;;;;;5117435;28;20509;-70
2021/12/05 11:36:38;;;;;;;49.87;28.73;;;3.90;99.90;;;;;;5117518;28;20771;-72
2021/12/05 11:39:22;;;;;;;49.73;29.00;;;3.80;99.90;;;;;;5117499;28;20452;-70
2021/12/05 11:41:49;;;;;;;54.43;28.47;;;3.90;99.90;;;;;;5117171;28;20468;-72
2021/12/05 11:44:19;;;;;;;50.80;28.07;;;3.90;99.90;;;;;;5116588;28;20545;-71
2021/12/05 11:46:46;;;;;;;49.63;26.93;;;3.80;99.90;;;;;;5116969;28;20439;-71
2021/12/05 11:49:21;;;;;;;52.87;29.10;;;3.70;99.90;;;;;;5116950;28;20787;-72
2021/12/05 11:51:52;;;;;;;50.03;29.87;;;3.70;99.90;;;;;;5116769;27;20530;-71
2021/12/05 11:54:22;;;;;;;47.00;28.00;;;3.70;99.90;;;;;;5116773;28;20433;-71
2021/12/05 11:56:52;;;;;;;55.13;30.87;;;3.70;99.90;;;;;;5116597;28;20499;-72
2021/12/05 11:59:22;;;;;;;44.90;28.47;;;3.70;99.90;;;;;;5116822;28;20436;-70
2021/12/05 12:01:53;;;;;;;46.13;27.53;;;3.70;99.90;;;;;;5117022;28;20443;-71
2021/12/05 12:04:42;;;;;;;43.80;26.77;;;3.70;99.90;;;;;;5116663;28;20443;-70
2021/12/05 12:07:18;;;;;;;47.30;26.23;;;3.70;99.90;;;;;;5116644;28;20857;-70
2021/12/05 12:09:47;;;;;;;41.30;24.70;;;3.70;99.90;;;;;;5117415;28;20460;-70
2021/12/05 12:12:15;;;;;;;44.10;25.77;;;3.60;99.90;;;;;;5117333;28;20514;-70
2021/12/05 12:14:42;;;;;;;46.40;28.20;;;3.60;99.90;;;;;;5116418;28;20521;-70
2021/12/05 12:17:15;;;;;;;45.30;26.20;;;3.60;99.90;;;;;;5116461;28;20468;-70
2021/12/05 12:19:44;;;;;;;44.73;27.47;;;3.60;99.90;;;;;;5116371;28;20441;-69
2021/12/05 12:22:16;;;;;;;50.37;29.60;;;3.50;99.90;;;;;;5116466;28;20943;-69
2021/12/05 12:24:43;;;;;;;48.50;29.10;;;3.50;99.90;;;;;;5115771;28;20455;-69
2021/12/05 12:27:12;;;;;;;57.57;32.13;;;3.50;99.90;;;;;;5115662;28;20448;-68
2021/12/05 12:29:40;;;;;;;46.90;27.73;;;3.60;99.90;;;;;;5116340;28;20502;-70
2021/12/05 12:32:16;;;;;;;47.93;27.97;;;3.50;99.90;;;;;;5116326;28;20534;-70
2021/12/05 12:34:45;;;;;;;52.50;30.37;;;3.50;99.90;;;;;;5115957;28;20910;-69
2021/12/05 12:37:14;;;;;;;53.93;29.07;;;3.60;99.90;;;;;;5115819;28;20456;-69
2021/12/05 12:39:45;;;;;;;53.27;31.70;;;3.60;99.90;;;;;;5116041;28;20760;-70
2021/12/05 12:42:16;;;;;;;49.27;29.00;;;3.70;99.90;;;;;;5115762;28;20451;-69
2021/12/05 12:45:13;;;;;;;51.43;27.70;;;3.70;99.90;;;;;;5115948;28;20441;-68
2021/12/05 12:47:44;;;;;;;47.13;27.30;;;3.80;99.90;;;;;;5115747;28;20441;-70
2021/12/05 12:50:34;;;;;;;43.93;27.00;;;3.70;99.90;;;;;;5115650;28;20455;-69
2021/12/05 12:53:09;;;;;;;48.43;28.13;;;3.80;99.90;;;;;;5116315;28;20445;-69
2021/12/05 12:55:39;;;;;;;54.17;29.07;;;3.80;99.90;;;;;;5115838;28;20440;-70
2021/12/05 12:58:08;;;;;;;47.83;28.40;;;3.80;99.90;;;;;;5116179;28;20802;-69
2021/12/05 13:00:38;;;;;;;45.73;26.50;;;3.90;99.90;;;;;;5116668;28;20796;-68
2021/12/05 13:03:27;;;;;;;49.03;29.33;;;3.90;99.90;;;;;;5116928;28;20504;-71
2021/12/05 13:11:49;;;;;;;45.23;26.30;;;3.80;99.90;;;;;;5116727;28;20439;-68
2021/12/05 13:14:17;;;;;;;47.23;28.53;;;3.80;99.90;;;;;;5116732;28;20436;-70
2021/12/05 13:16:45;;;;;;;52.50;30.30;;;3.80;99.90;;;;;;5115649;28;20449;-70
2021/12/05 13:19:14;;;;;;;50.00;29.60;;;3.70;99.90;;;;;;5115354;28;20521;-69
2021/12/05 13:21:45;;;;;;;53.70;29.93;;;3.70;99.90;;;;;;5115162;28;20460;-70
2021/12/05 13:24:25;;;;;;;54.30;32.27;;;3.70;99.90;;;;;;5115590;28;20437;-70
2021/12/05 13:26:55;;;;;;;52.40;29.20;;;3.70;99.90;;;;;;5115722;28;20460;-69
2021/12/05 13:29:25;;;;;;;48.60;27.87;;;3.70;99.90;;;;;;5115753;28;20444;-69
2021/12/05 13:31:56;;;;;;;53.43;30.77;;;3.80;99.90;;;;;;5115511;28;20550;-69
2021/12/05 13:34:34;;;;;;;54.00;31.37;;;3.80;99.90;;;;;;5114905;28;20856;-70
2021/12/05 13:37:21;;;;;;;47.77;29.30;;;3.90;99.90;;;;;;5115070;28;20791;-70
2021/12/05 13:39:52;;;;;;;51.83;28.87;;;3.80;99.90;;;;;;5114824;28;20444;-69
2021/12/05 13:42:22;;;;;;;56.83;31.70;;;3.80;99.90;;;;;;5114676;28;20445;-70
2021/12/05 13:45:15;;;;;;;50.63;30.67;;;3.70;99.90;;;;;;5115765;28;20447;-70
2021/12/05 13:47:47;;;;;;;56.93;30.80;;;3.70;99.90;;;;;;5096193;28;20499;-70
2021/12/05 13:50:42;;;;;;;60.97;36.37;;;3.70;99.90;;;;;;5114796;28;20444;-70
2021/12/05 13:53:29;;;;;;;57.03;31.30;;;3.70;99.90;;;;;;5115028;28;20561;-70
2021/12/05 13:56:06;;;;;;;56.93;30.83;;;3.60;99.90;;;;;;5114569;28;20429;-70
2021/12/05 13:58:40;;;;;;;50.77;28.37;;;3.60;99.90;;;;;;5114867;28;20531;-70
2021/12/05 14:01:11;;;;;;;54.27;28.80;;;3.60;99.90;;;;;;5115236;28;20437;-70
2021/12/05 14:04:09;;;;;;;60.77;31.47;;;3.60;99.90;;;;;;5115204;28;20889;-70
2021/12/05 14:06:57;;;;;;;48.77;28.73;;;3.50;99.90;;;;;;5069619;28;20586;-69
2021/12/05 14:09:37;;;;;;;54.73;29.07;;;3.50;99.90;;;;;;5115010;28;20817;-70
2021/12/05 14:12:11;;;;;;;54.20;29.40;;;3.50;99.90;;;;;;5115224;28;20433;-70
2021/12/05 14:14:43;;;;;;;47.43;27.30;;;3.40;99.90;;;;;;5115282;28;20441;-70
2021/12/05 14:17:12;;;;;;;46.23;26.67;;;3.40;99.90;;;;;;5115508;28;20511;-70
2021/12/05 14:19:42;;;;;;;48.67;27.13;;;3.40;99.90;;;;;;5118800;28;20448;-69
2021/12/05 14:22:12;;;;;;;50.17;29.27;;;3.40;99.90;;;;;;5118537;28;20497;-70
2021/12/05 14:24:50;;;;;;;47.17;28.87;;;3.40;99.90;;;;;;5116542;28;20825;-70
2021/12/05 14:27:19;;;;;;;50.17;28.63;;;3.40;99.90;;;;;;5116322;28;20933;-69
2021/12/05 14:29:48;;;;;;;48.30;29.60;;;3.40;99.90;;;;;;5115453;28;20456;-69
2021/12/05 14:32:21;;;;;;;43.17;27.27;;;3.50;99.90;;;;;;5114673;28;20547;-70
2021/12/05 14:34:49;;;;;;;46.27;28.40;;;3.40;99.90;;;;;;5114719;28;20436;-69
2021/12/05 14:37:19;;;;;;;45.37;27.07;;;3.50;99.90;;;;;;5114976;28;20456;-68
2021/12/05 14:39:48;;;;;;;43.07;27.17;;;3.50;99.90;;;;;;5114642;28;20437;-69
2021/12/05 14:42:18;;;;;;;39.50;26.13;;;3.50;99.90;;;;;;5114547;28;20940;-70
2021/12/05 14:44:48;;;;;;;41.47;25.20;;;3.60;99.90;;;;;;5114562;28;20912;-70
2021/12/05 14:47:17;;;;;;;45.53;26.10;;;3.60;99.90;;;;;;5115135;28;20475;-70
2021/12/05 14:49:50;;;;;;;45.47;25.60;;;3.60;99.90;;;;;;5117290;28;20452;-69
2021/12/05 14:52:19;;;;;;;44.73;25.93;;;3.50;99.90;;;;;;5119914;28;20441;-69
2021/12/05 14:54:47;;;;;;;49.13;27.20;;;3.40;99.90;;;;;;5118854;28;20456;-70
2021/12/05 14:57:18;;;;;;;55.53;33.80;;;3.40;99.90;;;;;;5119150;28;20475;-69
2021/12/05 14:59:47;;;;;;;53.57;32.40;;;3.40;99.90;;;;;;5119120;28;20920;-69
2021/12/05 15:02:14;;;;;;;65.80;38.00;;;3.40;99.90;;;;;;5118800;28;20455;-69
2021/12/05 15:04:48;;;;;;;52.27;31.63;;;3.40;99.90;;;;;;5118003;28;20460;-69
2021/12/05 15:07:17;;;;;;;46.27;28.27;;;3.40;99.90;;;;;;5117944;28;20529;-70
2021/12/05 15:09:47;;;;;;;45.70;28.23;;;3.40;99.90;;;;;;5117679;28;20479;-70
2021/12/05 15:12:18;;;;;;;48.20;28.10;;;3.40;99.90;;;;;;5117837;28;20500;-70
2021/12/05 15:14:47;;;;;;;43.43;26.07;;;3.40;99.90;;;;;;5117981;28;20441;-70
2021/12/05 15:17:17;;;;;;;44.57;26.30;;;3.50;99.90;;;;;;5117731;28;20467;-71
2021/12/05 15:19:46;;;;;;;46.40;27.20;;;3.40;99.90;;;;;;5117467;28;20456;-70
2021/12/05 15:22:14;;;;;;;52.10;27.70;;;3.40;99.90;;;;;;5117730;28;20448;-70
2021/12/05 15:24:48;;;;;;;52.40;29.87;;;3.30;99.90;;;;;;5117478;28;20511;-70
2021/12/05 15:27:20;;;;;;;49.93;28.53;;;3.30;99.90;;;;;;5120139;28;20955;-71
2021/12/05 15:29:48;;;;;;;47.83;28.07;;;3.30;99.90;;;;;;5120610;28;20810;-71
2021/12/05 15:32:17;;;;;;;56.70;30.20;;;3.20;99.90;;;;;;5117170;28;20453;-71
2021/12/05 15:34:44;;;;;;;59.80;30.33;;;3.20;99.90;;;;;;5116934;28;20467;-70
2021/12/05 15:37:14;;;;;;;54.37;29.20;;;3.20;99.90;;;;;;5117003;28;20913;-68
2021/12/05 15:39:44;;;;;;;50.50;28.97;;;3.20;99.90;;;;;;5116942;28;20469;-69
2021/12/05 15:42:19;;;;;;;51.67;31.17;;;3.10;99.90;;;;;;5116919;28;20449;-71
2021/12/05 15:44:47;;;;;;;54.47;29.90;;;3.10;99.90;;;;;;5117190;28;20505;-68
2021/12/05 15:47:16;;;;;;;50.37;29.60;;;3.20;99.90;;;;;;5117017;28;20481;-69
2021/12/05 15:49:54;;;;;;;56.03;29.57;;;3.20;99.90;;;;;;5116900;28;20441;-69
2021/12/05 15:52:25;;;;;;;51.00;30.03;;;3.20;99.90;;;;;;5116897;28;20445;-69
2021/12/05 15:54:53;;;;;;;60.07;30.73;;;3.20;99.90;;;;;;5117295;28;20448;-69
2021/12/05 15:57:31;;;;;;;57.03;31.00;;;3.20;99.90;;;;;;5116469;28;20757;-69
2021/12/05 16:00:02;;;;;;;56.33;29.10;;;3.20;99.90;;;;;;5116860;28;20441;-69
2021/12/05 16:02:29;;;;;;;57.10;31.30;;;3.20;99.90;;;;;;5116711;28;20445;-70
2021/12/05 16:04:57;;;;;;;56.80;29.40;;;3.20;99.90;;;;;;5117437;28;20779;-69
2021/12/05 16:07:27;;;;;;;61.80;32.47;;;3.20;99.90;;;;;;5115996;28;20476;-69
2021/12/05 16:10:10;;;;;;;58.77;31.50;;;3.20;99.90;;;;;;5116306;27;20557;-69
2021/12/05 16:12:41;;;;;;;56.87;29.10;;;3.20;99.90;;;;;;5116458;28;20461;-69
2021/12/05 16:15:09;;;;;;;61.10;31.43;;;3.20;99.90;;;;;;5116343;28;20454;-69
2021/12/05 16:17:36;;;;;;;61.07;28.97;;;3.10;99.90;;;;;;5116226;28;20460;-69
2021/12/05 16:20:17;;;;;;;57.93;32.50;;;3.10;99.90;;;;;;5116300;28;20529;-68
2021/12/05 16:23:21;;;;;;;61.37;30.40;;;3.20;99.90;;;;;;5116348;28;20477;-69
2021/12/05 16:26:01;;;;;;;62.40;31.37;;;3.20;99.90;;;;;;5115835;28;20440;-67
2021/12/05 16:28:34;;;;;;;54.70;30.87;;;3.20;99.90;;;;;;5116333;28;20771;-70
2021/12/05 16:31:06;;;;;;;61.50;30.37;;;3.20;99.90;;;;;;5115897;28;20476;-70
2021/12/05 16:33:34;;;;;;;55.43;31.73;;;3.20;99.90;;;;;;5116199;28;20817;-70
2021/12/05 16:36:01;;;;;;;61.20;31.03;;;3.20;99.90;;;;;;5115902;28;20568;-69
2021/12/05 16:38:34;;;;;;;62.27;32.20;;;3.20;99.90;;;;;;5116062;28;20791;-70
2021/12/05 16:41:11;;;;;;;60.87;32.53;;;3.20;99.90;;;;;;5116122;28;20536;-70